Aviation Digital Data Service (ADDS)

Output produced by METARs form (0727 UTC 24 March 2019)
found at http://www.aviationweather.gov/metar/data/
 
MZBZ 240200Z 09005KT 9999 FEW024 25/17 A3006 Q1018 NOSIG
TAF MZBZ 240300Z 2406/2506 07007KT 9999 SCT024